sensor_id;sensor_type;location;lat;lon;timestamp;pressure;altitude;pressure_sealevel;temperature;humidity
40384;BME280;26097;42.366;23.818;2022-10-12T00:00:57;94722.94;;;10.58;100.00
40384;BME280;26097;42.366;23.818;2022-10-12T00:03:58;94721.06;;;10.60;100.00
40384;BME280;26097;42.366;23.818;2022-10-12T00:06:58;94717.63;;;10.60;100.00
40384;BME280;26097;42.366;23.818;2022-10-12T00:09:59;94713.16;;;10.62;100.00
40384;BME280;26097;42.366;23.818;2022-10-12T00:12:59;94716.69;;;10.61;100.00
40384;BME280;26097;42.366;23.818;2022-10-12T00:16:04;94717.53;;;10.61;100.00
40384;BME280;26097;42.366;23.818;2022-10-12T00:19:04;94719.59;;;10.56;100.00
40384;BME280;26097;42.366;23.818;2022-10-12T00:22:05;94716.97;;;10.56;100.00
40384;BME280;26097;42.366;23.818;2022-10-12T00:25:06;94714.38;;;10.56;100.00
40384;BME280;26097;42.366;23.818;2022-10-12T00:28:07;94710.09;;;10.55;100.00
40384;BME280;26097;42.366;23.818;2022-10-12T00:31:10;94709.28;;;10.54;100.00
40384;BME280;26097;42.366;23.818;2022-10-12T00:34:10;94712.72;;;10.55;100.00
40384;BME280;26097;42.366;23.818;2022-10-12T00:37:11;94708.44;;;10.54;100.00
40384;BME280;26097;42.366;23.818;2022-10-12T00:40:11;94705.19;;;10.50;100.00
40384;BME280;26097;42.366;23.818;2022-10-12T00:43:31;94699.16;;;10.50;100.00
40384;BME280;26097;42.366;23.818;2022-10-12T00:46:41;94702.69;;;10.49;100.00
40384;BME280;26097;42.366;23.818;2022-10-12T00:50:12;94708.72;;;10.49;100.00
40384;BME280;26097;42.366;23.818;2022-10-12T00:53:17;94708.13;;;10.46;100.00
40384;BME280;26097;42.366;23.818;2022-10-12T00:56:23;94702.16;;;10.43;100.00
40384;BME280;26097;42.366;23.818;2022-10-12T00:59:31;94696.03;;;10.45;100.00
40384;BME280;26097;42.366;23.818;2022-10-12T01:02:33;94699.34;;;10.47;100.00
40384;BME280;26097;42.366;23.818;2022-10-12T01:05:35;94700.09;;;10.49;100.00
40384;BME280;26097;42.366;23.818;2022-10-12T01:08:38;94694.34;;;10.43;100.00
40384;BME280;26097;42.366;23.818;2022-10-12T01:11:39;94685.78;;;10.41;100.00
40384;BME280;26097;42.366;23.818;2022-10-12T01:14:39;94691.84;;;10.42;100.00
40384;BME280;26097;42.366;23.818;2022-10-12T01:30:24;94703.25;;;10.39;100.00
40384;BME280;26097;42.366;23.818;2022-10-12T01:33:40;94694.69;;;10.37;100.00
40384;BME280;26097;42.366;23.818;2022-10-12T01:36:55;94695.56;;;10.38;100.00
40384;BME280;26097;42.366;23.818;2022-10-12T01:40:03;94702.44;;;10.39;100.00
40384;BME280;26097;42.366;23.818;2022-10-12T01:43:07;94700.66;;;10.39;100.00
40384;BME280;26097;42.366;23.818;2022-10-12T01:49:21;94700.75;;;10.38;100.00
40384;BME280;26097;42.366;23.818;2022-10-12T01:56:38;94687.81;;;10.36;100.00
40384;BME280;26097;42.366;23.818;2022-10-12T02:06:12;94701.78;;;10.35;100.00
40384;BME280;26097;42.366;23.818;2022-10-12T02:09:19;94698.25;;;10.36;100.00
40384;BME280;26097;42.366;23.818;2022-10-12T02:12:22;94695.63;;;10.36;100.00
40384;BME280;26097;42.366;23.818;2022-10-12T02:15:25;94706.06;;;10.36;100.00
40384;BME280;26097;42.366;23.818;2022-10-12T02:18:27;94705.13;;;10.37;100.00
40384;BME280;26097;42.366;23.818;2022-10-12T02:21:32;94700.03;;;10.36;100.00
40384;BME280;26097;42.366;23.818;2022-10-12T02:24:36;94710.53;;;10.34;100.00
40384;BME280;26097;42.366;23.818;2022-10-12T02:27:42;94707.22;;;10.32;100.00
40384;BME280;26097;42.366;23.818;2022-10-12T02:30:49;94707.00;;;10.35;100.00
40384;BME280;26097;42.366;23.818;2022-10-12T02:40:33;94706.78;;;10.38;100.00
40384;BME280;26097;42.366;23.818;2022-10-12T02:46:39;94702.91;;;10.46;100.00
40384;BME280;26097;42.366;23.818;2022-10-12T02:49:41;94700.91;;;10.49;100.00
40384;BME280;26097;42.366;23.818;2022-10-12T02:52:44;94697.47;;;10.49;100.00
40384;BME280;26097;42.366;23.818;2022-10-12T02:55:53;94699.97;;;10.50;100.00
40384;BME280;26097;42.366;23.818;2022-10-12T02:58:55;94705.38;;;10.47;100.00
40384;BME280;26097;42.366;23.818;2022-10-12T03:01:55;94704.56;;;10.47;100.00
40384;BME280;26097;42.366;23.818;2022-10-12T03:04:56;94707.91;;;10.49;100.00
40384;BME280;26097;42.366;23.818;2022-10-12T03:07:56;94708.56;;;10.52;100.00
40384;BME280;26097;42.366;23.818;2022-10-12T03:11:01;94709.16;;;10.56;100.00
40384;BME280;26097;42.366;23.818;2022-10-12T03:14:02;94709.38;;;10.53;100.00
40384;BME280;26097;42.366;23.818;2022-10-12T03:17:03;94715.44;;;10.53;100.00
40384;BME280;26097;42.366;23.818;2022-10-12T03:20:04;94705.00;;;10.53;100.00
40384;BME280;26097;42.366;23.818;2022-10-12T03:23:04;94700.72;;;10.52;100.00
40384;BME280;26097;42.366;23.818;2022-10-12T03:26:05;94705.00;;;10.53;100.00
40384;BME280;26097;42.366;23.818;2022-10-12T03:29:12;94704.88;;;10.55;100.00
40384;BME280;26097;42.366;23.818;2022-10-12T03:32:12;94706.56;;;10.56;100.00
40384;BME280;26097;42.366;23.818;2022-10-12T03:35:15;94704.88;;;10.55;100.00
40384;BME280;26097;42.366;23.818;2022-10-12T03:38:16;94704.88;;;10.55;100.00
40384;BME280;26097;42.366;23.818;2022-10-12T03:41:17;94702.28;;;10.55;100.00
40384;BME280;26097;42.366;23.818;2022-10-12T03:44:17;94705.63;;;10.57;100.00
40384;BME280;26097;42.366;23.818;2022-10-12T03:47:17;94716.78;;;10.59;100.00
40384;BME280;26097;42.366;23.818;2022-10-12T03:50:18;94708.97;;;10.59;100.00
40384;BME280;26097;42.366;23.818;2022-10-12T03:53:18;94710.63;;;10.60;100.00
40384;BME280;26097;42.366;23.818;2022-10-12T03:56:19;94707.94;;;10.62;100.00
40384;BME280;26097;42.366;23.818;2022-10-12T03:59:19;94707.72;;;10.65;100.00
40384;BME280;26097;42.366;23.818;2022-10-12T04:02:19;94711.06;;;10.67;100.00
40384;BME280;26097;42.366;23.818;2022-10-12T04:05:20;94709.19;;;10.69;100.00
40384;BME280;26097;42.366;23.818;2022-10-12T04:08:21;94710.03;;;10.69;100.00
40384;BME280;26097;42.366;23.818;2022-10-12T04:11:22;94711.69;;;10.70;100.00
40384;BME280;26097;42.366;23.818;2022-10-12T04:14:22;94707.34;;;10.71;100.00
40384;BME280;26097;42.366;23.818;2022-10-12T04:17:23;94712.34;;;10.74;100.00
40384;BME280;26097;42.366;23.818;2022-10-12T04:20:23;94723.38;;;10.78;100.00
40384;BME280;26097;42.366;23.818;2022-10-12T04:23:23;94718.91;;;10.80;100.00
40384;BME280;26097;42.366;23.818;2022-10-12T04:26:24;94712.78;;;10.81;100.00
40384;BME280;26097;42.366;23.818;2022-10-12T04:29:24;94719.66;;;10.82;100.00
40384;BME280;26097;42.366;23.818;2022-10-12T04:32:25;94723.19;;;10.81;100.00
40384;BME280;26097;42.366;23.818;2022-10-12T04:35:26;94724.88;;;10.82;100.00
40384;BME280;26097;42.366;23.818;2022-10-12T04:38:26;94728.22;;;10.84;100.00
40384;BME280;26097;42.366;23.818;2022-10-12T04:41:27;94726.53;;;10.83;100.00
40384;BME280;26097;42.366;23.818;2022-10-12T04:44:27;94731.03;;;10.81;100.00
40384;BME280;26097;42.366;23.818;2022-10-12T04:47:28;94725.81;;;10.81;100.00
40384;BME280;26097;42.366;23.818;2022-10-12T04:50:28;94731.75;;;10.83;100.00
40384;BME280;26097;42.366;23.818;2022-10-12T04:53:28;94737.78;;;10.83;100.00
40384;BME280;26097;42.366;23.818;2022-10-12T04:56:29;94738.44;;;10.87;100.00
40384;BME280;26097;42.366;23.818;2022-10-12T04:59:29;94741.97;;;10.86;100.00
40384;BME280;26097;42.366;23.818;2022-10-12T05:02:30;94734.88;;;10.88;100.00
40384;BME280;26097;42.366;23.818;2022-10-12T05:05:30;94740.81;;;10.90;100.00
40384;BME280;26097;42.366;23.818;2022-10-12T05:08:30;94742.41;;;10.93;100.00
40384;BME280;26097;42.366;23.818;2022-10-12T05:11:31;94747.63;;;10.93;100.00
40384;BME280;26097;42.366;23.818;2022-10-12T05:14:31;94747.63;;;10.93;100.00
40384;BME280;26097;42.366;23.818;2022-10-12T05:17:32;94751.06;;;10.93;100.00
40384;BME280;26097;42.366;23.818;2022-10-12T05:20:32;94749.19;;;10.95;100.00
40384;BME280;26097;42.366;23.818;2022-10-12T05:23:32;94756.91;;;10.97;100.00
40384;BME280;26097;42.366;23.818;2022-10-12T05:26:33;94761.19;;;10.98;100.00
40384;BME280;26097;42.366;23.818;2022-10-12T05:29:37;94760.97;;;11.01;100.00
40384;BME280;26097;42.366;23.818;2022-10-12T05:32:37;94761.91;;;11.00;100.00
40384;BME280;26097;42.366;23.818;2022-10-12T05:35:37;94761.81;;;11.02;100.00
40384;BME280;26097;42.366;23.818;2022-10-12T05:38:38;94768.50;;;11.06;100.00
40384;BME280;26097;42.366;23.818;2022-10-12T05:41:38;94775.38;;;11.07;100.00
40384;BME280;26097;42.366;23.818;2022-10-12T05:44:38;94777.16;;;11.06;100.00
40384;BME280;26097;42.366;23.818;2022-10-12T05:47:39;94771.84;;;11.08;100.00
40384;BME280;26097;42.366;23.818;2022-10-12T05:50:40;94785.63;;;11.10;100.00
40384;BME280;26097;42.366;23.818;2022-10-12T05:53:41;94788.31;;;11.08;100.00
40384;BME280;26097;42.366;23.818;2022-10-12T05:56:44;94789.16;;;11.09;100.00
40384;BME280;26097;42.366;23.818;2022-10-12T05:59:44;94792.50;;;11.11;100.00
40384;BME280;26097;42.366;23.818;2022-10-12T06:02:45;94788.13;;;11.11;100.00
40384;BME280;26097;42.366;23.818;2022-10-12T06:05:45;94795.84;;;11.13;100.00
40384;BME280;26097;42.366;23.818;2022-10-12T06:08:46;94804.41;;;11.15;100.00
40384;BME280;26097;42.366;23.818;2022-10-12T06:11:46;94806.06;;;11.16;100.00
40384;BME280;26097;42.366;23.818;2022-10-12T06:14:46;94806.72;;;11.20;100.00
40384;BME280;26097;42.366;23.818;2022-10-12T06:17:47;94798.66;;;11.23;100.00
40384;BME280;26097;42.366;23.818;2022-10-12T06:20:49;94812.34;;;11.26;100.00
40384;BME280;26097;42.366;23.818;2022-10-12T06:23:51;94810.47;;;11.28;100.00
40384;BME280;26097;42.366;23.818;2022-10-12T06:26:51;94805.03;;;11.32;100.00
40384;BME280;26097;42.366;23.818;2022-10-12T06:29:52;94815.28;;;11.35;100.00
40384;BME280;26097;42.366;23.818;2022-10-12T06:32:52;94822.16;;;11.36;100.00
40384;BME280;26097;42.366;23.818;2022-10-12T06:35:53;94818.63;;;11.37;100.00
40384;BME280;26097;42.366;23.818;2022-10-12T06:38:54;94827.16;;;11.39;100.00
40384;BME280;26097;42.366;23.818;2022-10-12T06:41:55;94827.28;;;11.37;100.00
40384;BME280;26097;42.366;23.818;2022-10-12T06:44:55;94820.19;;;11.39;100.00
40384;BME280;26097;42.366;23.818;2022-10-12T06:47:56;94827.72;;;11.44;100.00
40384;BME280;26097;42.366;23.818;2022-10-12T06:50:57;94831.16;;;11.45;100.00
40384;BME280;26097;42.366;23.818;2022-10-12T06:53:57;94825.09;;;11.44;100.00
40384;BME280;26097;42.366;23.818;2022-10-12T06:56:58;94835.34;;;11.47;100.00
40384;BME280;26097;42.366;23.818;2022-10-12T06:59:58;94833.47;;;11.49;100.00
40384;BME280;26097;42.366;23.818;2022-10-12T07:02:58;94833.47;;;11.49;100.00
40384;BME280;26097;42.366;23.818;2022-10-12T07:06:12;94836.78;;;11.51;100.00
40384;BME280;26097;42.366;23.818;2022-10-12T07:09:13;94833.25;;;11.52;100.00
40384;BME280;26097;42.366;23.818;2022-10-12T07:12:13;94838.25;;;11.55;100.00
40384;BME280;26097;42.366;23.818;2022-10-12T07:15:14;94836.19;;;11.61;100.00
40384;BME280;26097;42.366;23.818;2022-10-12T07:18:14;94839.41;;;11.64;100.00
40384;BME280;26097;42.366;23.818;2022-10-12T07:21:15;94847.97;;;11.66;100.00
40384;BME280;26097;42.366;23.818;2022-10-12T07:24:15;94839.41;;;11.64;100.00
40384;BME280;26097;42.366;23.818;2022-10-12T07:27:16;94839.31;;;11.66;100.00
40384;BME280;26097;42.366;23.818;2022-10-12T07:30:16;94839.31;;;11.66;100.00
40384;BME280;26097;42.366;23.818;2022-10-12T07:33:17;94840.78;;;11.70;100.00
40384;BME280;26097;42.366;23.818;2022-10-12T07:36:17;94841.41;;;11.74;100.00
40384;BME280;26097;42.366;23.818;2022-10-12T07:39:18;94839.31;;;11.79;100.00
40384;BME280;26097;42.366;23.818;2022-10-12T07:42:19;94836.91;;;11.76;100.00
40384;BME280;26097;42.366;23.818;2022-10-12T07:45:19;94841.91;;;11.79;100.00
40384;BME280;26097;42.366;23.818;2022-10-12T07:48:20;94845.88;;;11.84;100.00
40384;BME280;26097;42.366;23.818;2022-10-12T07:51:21;94837.19;;;11.84;100.00
40384;BME280;26097;42.366;23.818;2022-10-12T07:54:21;94844.72;;;11.89;100.00
40384;BME280;26097;42.366;23.818;2022-10-12T07:57:22;94844.06;;;11.98;100.00
40384;BME280;26097;42.366;23.818;2022-10-12T08:00:22;94840.97;;;12.06;100.00
40384;BME280;26097;42.366;23.818;2022-10-12T08:03:23;94844.31;;;12.08;100.00
40384;BME280;26097;42.366;23.818;2022-10-12T08:06:26;94840.88;;;12.07;100.00
40384;BME280;26097;42.366;23.818;2022-10-12T08:09:26;94843.03;;;12.13;100.00
40384;BME280;26097;42.366;23.818;2022-10-12T08:12:27;94844.72;;;12.14;100.00
40384;BME280;26097;42.366;23.818;2022-10-12T08:15:27;94843.91;;;12.14;100.00
40384;BME280;26097;42.366;23.818;2022-10-12T08:18:28;94840.75;;;12.22;100.00
40384;BME280;26097;42.366;23.818;2022-10-12T08:21:28;94849.31;;;12.24;100.00
40384;BME280;26097;42.366;23.818;2022-10-12T08:24:29;94850.75;;;12.28;100.00
40384;BME280;26097;42.366;23.818;2022-10-12T08:27:30;94853.88;;;12.33;100.00
40384;BME280;26097;42.366;23.818;2022-10-12T08:30:32;94851.97;;;12.35;100.00
40384;BME280;26097;42.366;23.818;2022-10-12T08:33:32;94851.72;;;12.27;100.00
40384;BME280;26097;42.366;23.818;2022-10-12T08:36:33;94857.34;;;12.34;100.00
40384;BME280;26097;42.366;23.818;2022-10-12T08:39:33;94846.97;;;12.32;100.00
40384;BME280;26097;42.366;23.818;2022-10-12T08:46:04;94848.00;;;12.42;100.00
40384;BME280;26097;42.366;23.818;2022-10-12T08:52:29;94847.06;;;12.43;100.00
40384;BME280;26097;42.366;23.818;2022-10-12T08:55:40;94845.91;;;12.48;100.00
40384;BME280;26097;42.366;23.818;2022-10-12T08:58:44;94853.28;;;12.54;100.00
40384;BME280;26097;42.366;23.818;2022-10-12T09:05:02;94850.97;;;12.62;100.00
40384;BME280;26097;42.366;23.818;2022-10-12T09:08:41;94849.75;;;12.79;100.00
40384;BME280;26097;42.366;23.818;2022-10-12T09:12:00;94848.94;;;12.79;100.00
40384;BME280;26097;42.366;23.818;2022-10-12T09:15:07;94850.78;;;12.77;100.00
40384;BME280;26097;42.366;23.818;2022-10-12T09:18:40;94851.47;;;12.67;100.00
40384;BME280;26097;42.366;23.818;2022-10-12T09:21:41;94853.16;;;12.68;100.00
40384;BME280;26097;42.366;23.818;2022-10-12T09:24:42;94856.47;;;12.70;100.00
40384;BME280;26097;42.366;23.818;2022-10-12T09:27:45;94851.88;;;12.74;100.00
40384;BME280;26097;42.366;23.818;2022-10-12T09:33:59;94849.59;;;12.69;100.00
40384;BME280;26097;42.366;23.818;2022-10-12T09:37:02;94846.25;;;12.67;100.00
40384;BME280;26097;42.366;23.818;2022-10-12T09:40:02;94847.91;;;12.68;100.00
40384;BME280;26097;42.366;23.818;2022-10-12T09:43:03;94830.72;;;12.77;100.00
40384;BME280;26097;42.366;23.818;2022-10-12T09:46:06;94844.03;;;12.98;100.00
40384;BME280;26097;42.366;23.818;2022-10-12T09:49:11;94836.44;;;13.07;100.00
40384;BME280;26097;42.366;23.818;2022-10-12T09:52:13;94848.19;;;13.01;100.00
40384;BME280;26097;42.366;23.818;2022-10-12T09:58:18;94843.72;;;12.90;100.00
40384;BME280;26097;42.366;23.818;2022-10-12T10:01:25;94843.34;;;12.83;100.00
40384;BME280;26097;42.366;23.818;2022-10-12T10:04:26;94840.72;;;12.83;100.00
40384;BME280;26097;42.366;23.818;2022-10-12T10:07:33;94834.44;;;12.86;100.00
40384;BME280;26097;42.366;23.818;2022-10-12T10:10:33;94834.44;;;12.86;100.00
40384;BME280;26097;42.366;23.818;2022-10-12T10:13:35;94835.63;;;12.82;100.00
40384;BME280;26097;42.366;23.818;2022-10-12T10:16:46;94839.28;;;12.79;100.00
40384;BME280;26097;42.366;23.818;2022-10-12T10:19:50;94833.66;;;12.73;100.00
40384;BME280;26097;42.366;23.818;2022-10-12T10:22:50;94831.41;;;12.68;100.00
40384;BME280;26097;42.366;23.818;2022-10-12T10:26:06;94833.25;;;12.79;100.00
40384;BME280;26097;42.366;23.818;2022-10-12T10:29:18;94827.72;;;12.95;100.00
40384;BME280;26097;42.366;23.818;2022-10-12T10:32:23;94830.34;;;13.06;100.00
40384;BME280;26097;42.366;23.818;2022-10-12T10:35:28;94818.34;;;13.15;100.00
40384;BME280;26097;42.366;23.818;2022-10-12T10:38:44;94819.09;;;13.17;100.00
40384;BME280;26097;42.366;23.818;2022-10-12T10:41:47;94813.25;;;13.13;100.00
40384;BME280;26097;42.366;23.818;2022-10-12T10:44:50;94820.25;;;13.13;100.00
40384;BME280;26097;42.366;23.818;2022-10-12T10:47:51;94822.41;;;13.08;100.00
40384;BME280;26097;42.366;23.818;2022-10-12T10:51:02;94820.09;;;13.03;100.00
40384;BME280;26097;42.366;23.818;2022-10-12T10:54:23;94812.09;;;12.93;100.00
40384;BME280;26097;42.366;23.818;2022-10-12T10:57:25;94814.22;;;12.88;100.00
40384;BME280;26097;42.366;23.818;2022-10-12T11:00:27;94813.28;;;12.89;100.00
40384;BME280;26097;42.366;23.818;2022-10-12T11:03:56;94805.91;;;12.94;100.00
40384;BME280;26097;42.366;23.818;2022-10-12T11:07:08;94807.38;;;12.98;100.00
40384;BME280;26097;42.366;23.818;2022-10-12T11:10:35;94805.03;;;13.07;100.00
40384;BME280;26097;42.366;23.818;2022-10-12T11:13:55;94794.47;;;13.20;100.00
40384;BME280;26097;42.366;23.818;2022-10-12T11:17:04;94800.63;;;13.43;100.00
40384;BME280;26097;42.366;23.818;2022-10-12T11:23:37;94797.28;;;13.52;100.00
40384;BME280;26097;42.366;23.818;2022-10-12T11:26:49;94783.09;;;13.43;100.00
40384;BME280;26097;42.366;23.818;2022-10-12T11:29:58;94781.88;;;13.36;100.00
40384;BME280;26097;42.366;23.818;2022-10-12T11:33:03;94777.72;;;13.34;100.00
40384;BME280;26097;42.366;23.818;2022-10-12T11:36:07;94780.47;;;13.32;100.00
40384;BME280;26097;42.366;23.818;2022-10-12T11:39:40;94775.56;;;13.27;100.00
40384;BME280;26097;42.366;23.818;2022-10-12T11:42:42;94777.50;;;13.37;100.00
40384;BME280;26097;42.366;23.818;2022-10-12T11:45:46;94767.78;;;13.50;100.00
40384;BME280;26097;42.366;23.818;2022-10-12T11:48:55;94775.31;;;13.66;100.00
40384;BME280;26097;42.366;23.818;2022-10-12T11:52:02;94770.41;;;13.73;100.00
40384;BME280;26097;42.366;23.818;2022-10-12T11:58:42;94765.16;;;13.84;100.00
40384;BME280;26097;42.366;23.818;2022-10-12T12:01:53;94771.13;;;13.87;100.00
40384;BME280;26097;42.366;23.818;2022-10-12T12:04:58;94770.63;;;13.93;100.00
40384;BME280;26097;42.366;23.818;2022-10-12T12:08:01;94768.94;;;14.14;100.00
40384;BME280;26097;42.366;23.818;2022-10-12T12:11:05;94774.16;;;14.26;100.00
40384;BME280;26097;42.366;23.818;2022-10-12T12:17:24;94772.50;;;14.36;100.00
40384;BME280;26097;42.366;23.818;2022-10-12T12:23:53;94777.09;;;14.44;100.00
40384;BME280;26097;42.366;23.818;2022-10-12T12:26:54;94778.38;;;14.50;100.00
40384;BME280;26097;42.366;23.818;2022-10-12T12:29:54;94771.94;;;14.54;100.00
40384;BME280;26097;42.366;23.818;2022-10-12T12:35:59;94772.66;;;14.56;100.00
40384;BME280;26097;42.366;23.818;2022-10-12T12:39:04;94773.13;;;14.61;100.00
40384;BME280;26097;42.366;23.818;2022-10-12T12:42:07;94769.66;;;14.61;100.00
40384;BME280;26097;42.366;23.818;2022-10-12T12:51:41;94769.09;;;14.57;100.00
40384;BME280;26097;42.366;23.818;2022-10-12T13:02:12;94764.66;;;14.57;100.00
40384;BME280;26097;42.366;23.818;2022-10-12T13:08:42;94767.25;;;14.36;100.00
40384;BME280;26097;42.366;23.818;2022-10-12T13:22:02;94783.16;;;14.56;100.00
40384;BME280;26097;42.366;23.818;2022-10-12T13:25:07;94779.66;;;14.67;100.00
40384;BME280;26097;42.366;23.818;2022-10-12T13:28:19;94776.63;;;14.50;100.00
40384;BME280;26097;42.366;23.818;2022-10-12T13:34:28;94784.91;;;14.67;100.00
40384;BME280;26097;42.366;23.818;2022-10-12T13:37:32;94774.41;;;14.67;100.00
40384;BME280;26097;42.366;23.818;2022-10-12T13:40:39;94787.31;;;14.59;100.00
40384;BME280;26097;42.366;23.818;2022-10-12T13:43:52;94782.41;;;14.65;100.00
40384;BME280;26097;42.366;23.818;2022-10-12T13:46:55;94780.22;;;14.70;100.00
40384;BME280;26097;42.366;23.818;2022-10-12T13:49:56;94777.28;;;14.75;100.00
40384;BME280;26097;42.366;23.818;2022-10-12T13:52:57;94772.88;;;14.76;100.00
40384;BME280;26097;42.366;23.818;2022-10-12T13:56:10;94770.47;;;14.73;100.00
40384;BME280;26097;42.366;23.818;2022-10-12T13:59:16;94772.97;;;14.74;100.00
40384;BME280;26097;42.366;23.818;2022-10-12T14:02:24;94779.06;;;14.75;100.00
40384;BME280;26097;42.366;23.818;2022-10-12T14:05:28;94788.84;;;14.73;100.00
40384;BME280;26097;42.366;23.818;2022-10-12T14:08:31;94778.81;;;14.66;100.00
40384;BME280;26097;42.366;23.818;2022-10-12T14:11:32;94789.81;;;14.60;100.00
40384;BME280;26097;42.366;23.818;2022-10-12T14:14:35;94779.81;;;14.54;100.00
40384;BME280;26097;42.366;23.818;2022-10-12T14:17:41;94783.63;;;14.50;100.00
40384;BME280;26097;42.366;23.818;2022-10-12T14:20:43;94776.72;;;14.49;100.00
40384;BME280;26097;42.366;23.818;2022-10-12T14:23:50;94772.56;;;14.46;100.00
40384;BME280;26097;42.366;23.818;2022-10-12T14:30:19;94778.44;;;14.38;100.00
40384;BME280;26097;42.366;23.818;2022-10-12T14:33:24;94785.97;;;14.32;100.00
40384;BME280;26097;42.366;23.818;2022-10-12T14:36:25;94789.28;;;14.22;100.00
40384;BME280;26097;42.366;23.818;2022-10-12T14:39:26;94789.69;;;14.18;100.00
40384;BME280;26097;42.366;23.818;2022-10-12T14:45:27;94790.88;;;14.02;100.00
40384;BME280;26097;42.366;23.818;2022-10-12T14:48:28;94782.78;;;13.94;100.00
40384;BME280;26097;42.366;23.818;2022-10-12T14:51:28;94779.69;;;13.89;100.00
40384;BME280;26097;42.366;23.818;2022-10-12T14:54:29;94780.19;;;13.82;100.00
40384;BME280;26097;42.366;23.818;2022-10-12T14:57:29;94780.66;;;13.76;100.00
40384;BME280;26097;42.366;23.818;2022-10-12T15:00:32;94783.03;;;13.68;100.00
40384;BME280;26097;42.366;23.818;2022-10-12T15:03:32;94777.66;;;13.58;100.00
40384;BME280;26097;42.366;23.818;2022-10-12T15:06:33;94778.47;;;13.47;100.00
40384;BME280;26097;42.366;23.818;2022-10-12T15:09:33;94782.50;;;13.40;100.00
40384;BME280;26097;42.366;23.818;2022-10-12T15:12:34;94776.03;;;13.33;100.00
40384;BME280;26097;42.366;23.818;2022-10-12T15:15:39;94776.53;;;13.26;100.00
40384;BME280;26097;42.366;23.818;2022-10-12T15:18:41;94776.03;;;13.21;100.00
40384;BME280;26097;42.366;23.818;2022-10-12T15:21:41;94773.16;;;13.13;100.00
40384;BME280;26097;42.366;23.818;2022-10-12T15:24:42;94781.81;;;13.02;100.00
40384;BME280;26097;42.366;23.818;2022-10-12T15:27:43;94775.00;;;12.88;100.00
40384;BME280;26097;42.366;23.818;2022-10-12T15:30:43;94783.41;;;12.80;100.00
40384;BME280;26097;42.366;23.818;2022-10-12T15:33:44;94781.81;;;12.66;100.00
40384;BME280;26097;42.366;23.818;2022-10-12T15:36:44;94780.78;;;12.56;100.00
40384;BME280;26097;42.366;23.818;2022-10-12T15:39:45;94780.84;;;12.43;100.00
40384;BME280;26097;42.366;23.818;2022-10-12T15:42:45;94787.81;;;12.31;100.00
40384;BME280;26097;42.366;23.818;2022-10-12T15:45:46;94787.84;;;12.18;100.00
40384;BME280;26097;42.366;23.818;2022-10-12T15:48:47;94787.88;;;12.05;100.00
40384;BME280;26097;42.366;23.818;2022-10-12T15:51:49;94791.81;;;11.98;100.00
40384;BME280;26097;42.366;23.818;2022-10-12T15:54:51;94794.38;;;11.86;100.00
40384;BME280;26097;42.366;23.818;2022-10-12T15:57:51;94797.72;;;11.76;100.00
40384;BME280;26097;42.366;23.818;2022-10-12T16:00:52;94799.19;;;11.67;100.00
40384;BME280;26097;42.366;23.818;2022-10-12T16:03:52;94799.44;;;11.51;100.00
40384;BME280;26097;42.366;23.818;2022-10-12T16:06:53;94806.72;;;11.46;100.00
40384;BME280;26097;42.366;23.818;2022-10-12T16:09:54;94807.22;;;11.38;100.00
40384;BME280;26097;42.366;23.818;2022-10-12T16:12:54;94814.97;;;11.26;100.00
40384;BME280;26097;42.366;23.818;2022-10-12T16:15:55;94818.59;;;11.24;100.00
40384;BME280;26097;42.366;23.818;2022-10-12T16:18:55;94823.41;;;11.17;100.00
40384;BME280;26097;42.366;23.818;2022-10-12T16:21:56;94821.19;;;11.11;100.00
40384;BME280;26097;42.366;23.818;2022-10-12T16:24:56;94817.13;;;11.07;100.00
40384;BME280;26097;42.366;23.818;2022-10-12T16:27:57;94821.81;;;11.02;100.00
40384;BME280;26097;42.366;23.818;2022-10-12T16:30:57;94822.13;;;10.97;100.00
40384;BME280;26097;42.366;23.818;2022-10-12T16:33:58;94825.53;;;10.97;100.00
40384;BME280;26097;42.366;23.818;2022-10-12T16:36:58;94820.22;;;10.86;100.00
40384;BME280;26097;42.366;23.818;2022-10-12T16:40:00;94817.25;;;10.78;100.00
40384;BME280;26097;42.366;23.818;2022-10-12T16:43:01;94824.56;;;10.73;100.00
40384;BME280;26097;42.366;23.818;2022-10-12T16:46:01;94824.09;;;10.66;100.00
40384;BME280;26097;42.366;23.818;2022-10-12T16:49:02;94826.19;;;10.61;100.00
40384;BME280;26097;42.366;23.818;2022-10-12T16:52:03;94830.00;;;10.55;100.00
40384;BME280;26097;42.366;23.818;2022-10-12T16:55:04;94830.00;;;10.55;100.00
40384;BME280;26097;42.366;23.818;2022-10-12T16:58:05;94824.72;;;10.56;100.00
40384;BME280;26097;42.366;23.818;2022-10-12T17:01:10;94832.91;;;10.50;100.00
40384;BME280;26097;42.366;23.818;2022-10-12T17:04:11;94824.66;;;10.43;100.00
40384;BME280;26097;42.366;23.818;2022-10-12T17:07:12;94826.66;;;10.38;100.00
40384;BME280;26097;42.366;23.818;2022-10-12T17:10:13;94824.47;;;10.32;100.00
40384;BME280;26097;42.366;23.818;2022-10-12T17:13:13;94823.72;;;10.30;100.00
40384;BME280;26097;42.366;23.818;2022-10-12T17:16:14;94829.34;;;10.24;100.00
40384;BME280;26097;42.366;23.818;2022-10-12T17:19:37;94821.16;;;10.15;100.00
40384;BME280;26097;42.366;23.818;2022-10-12T17:22:39;94823.28;;;10.09;100.00
40384;BME280;26097;42.366;23.818;2022-10-12T17:25:39;94821.72;;;10.06;100.00
40384;BME280;26097;42.366;23.818;2022-10-12T17:28:40;94814.59;;;9.95;100.00
40384;BME280;26097;42.366;23.818;2022-10-12T17:31:41;94816.63;;;9.90;100.00